Time;durP1;ratioP1;P1;durP2;ratioP2;P2;SDS_P1;SDS_P2;PMS_P1;PMS_P2;Temp;Humidity;BMP_temperature;BMP_pressure;BME280_temperature;BME280_humidity;BME280_pressure;Samples;Min_cycle;Max_cycle;Signal;HPM_P1;HPM_P2
2023/01/16 00:00:20;;;;;;;;;;;;;;;4.61;61.88;98728.91;1086392;39;20344;-79
2023/01/16 00:01:24;;;;;;;;;;;;;;;4.62;62.20;98721.81;1085741;54;19947;-80
2023/01/16 00:02:25;;;;;;;;;;;;;;;4.67;61.90;98725.72;1085565;54;19957;-79
2023/01/16 00:03:28;;;;;;;;;;;;;;;4.60;62.14;98724.59;1086247;54;19946;-78
2023/01/16 00:04:33;;;;;;;;;;;;;;;4.69;61.78;98709.69;1086491;54;20476;-80
2023/01/16 00:05:35;;;;;;;;;;;;;;;4.74;61.99;98715.41;1085919;54;19970;-79
2023/01/16 00:06:40;;;;;;;;;;;;;;;4.71;62.00;98715.69;1085636;54;19954;-79
2023/01/16 00:07:41;;;;;;;;;;;;;;;4.67;61.80;98709.00;1085784;54;20500;-78
2023/01/16 00:08:46;;;;;;;;;;;;;;;4.69;61.90;98710.53;1085522;54;20019;-79
2023/01/16 00:09:47;;;;;;;;;;;;;;;4.72;61.85;98709.44;1085484;54;19977;-78
2023/01/16 00:10:50;;;;;;;;;;;;;;;4.73;61.76;98710.25;1084316;54;19994;-78
2023/01/16 00:11:52;;;;;;;;;;;;;;;4.73;61.60;98707.59;1084456;54;19951;-78
2023/01/16 00:12:55;;;;;;;;;;;;;;;4.73;61.53;98703.13;1084418;54;19947;-77
2023/01/16 00:13:57;;;;;;;;;;;;;;;4.75;61.54;98695.88;1084981;39;20357;-78
2023/01/16 00:15:03;;;;;;;;;;;;;;;4.75;61.45;98695.06;1084567;54;19946;-78
2023/01/16 00:16:05;;;;;;;;;;;;;;;4.75;61.49;98693.25;1085036;54;19974;-78
2023/01/16 00:17:09;;;;;;;;;;;;;;;4.80;61.40;98691.03;1085336;54;19947;-78
2023/01/16 00:18:10;;;;;;;;;;;;;;;4.83;61.40;98688.06;1085288;54;19946;-78
2023/01/16 00:19:14;;;;;;;;;;;;;;;4.78;61.49;98692.97;1085270;54;19947;-78
2023/01/16 00:20:15;;;;;;;;;;;;;;;4.83;61.62;98693.38;1085262;54;19947;-78
2023/01/16 00:21:19;;;;;;;;;;;;;;;4.76;61.80;98697.56;1085216;54;19954;-78
2023/01/16 00:22:20;;;;;;;;;;;;;;;4.74;61.82;98682.81;1085425;54;19951;-78
2023/01/16 00:23:24;;;;;;;;;;;;;;;4.77;61.55;98690.47;1085547;54;19946;-79
2023/01/16 00:24:25;;;;;;;;;;;;;;;4.79;61.54;98683.19;1085297;54;19957;-79
2023/01/16 00:25:29;;;;;;;;;;;;;;;4.82;61.36;98681.09;1087008;54;19939;-79
2023/01/16 00:26:31;;;;;;;;;;;;;;;4.83;61.24;98688.06;1086990;54;19958;-79
2023/01/16 00:27:35;;;;;;;;;;;;;;;4.80;61.17;98682.22;1086943;54;19990;-79
2023/01/16 00:28:37;;;;;;;;;;;;;;;4.76;61.16;98676.38;1087047;54;19965;-78
2023/01/16 00:29:40;;;;;;;;;;;;;;;4.73;61.41;98673.19;1087156;54;19957;-79
2023/01/16 00:30:44;;;;;;;;;;;;;;;4.79;61.28;98670.81;1089352;39;20356;-79
2023/01/16 00:31:48;;;;;;;;;;;;;;;4.74;61.49;98667.75;1087062;54;19962;-79
2023/01/16 00:32:49;;;;;;;;;;;;;;;4.81;61.39;98668.00;1086858;54;19950;-79
2023/01/16 00:33:53;;;;;;;;;;;;;;;4.76;61.25;98664.97;1086883;54;20449;-79
2023/01/16 00:34:55;;;;;;;;;;;;;;;4.80;61.27;98658.41;1090567;39;20383;-79
2023/01/16 00:36:11;;;;;;;;;;;;;;;4.74;61.54;98656.31;1086850;54;19946;-79
2023/01/16 00:37:12;;;;;;;;;;;;;;;4.67;61.13;98650.75;1087026;54;19951;-79
2023/01/16 00:38:21;;;;;;;;;;;;;;;4.67;61.31;98656.06;1086687;54;19950;-79
2023/01/16 00:39:26;;;;;;;;;;;;;;;4.70;61.36;98655.78;1086647;54;19954;-79
2023/01/16 00:40:39;;;;;;;;;;;;;;;4.73;61.19;98650.19;1089717;47;19995;-79
2023/01/16 00:41:40;;;;;;;;;;;;;;;4.72;61.03;98652.97;1086799;54;20728;-79
2023/01/16 00:42:44;;;;;;;;;;;;;;;4.74;61.18;98651.84;1087536;39;20169;-79
2023/01/16 00:43:45;;;;;;;;;;;;;;;4.71;61.23;98644.22;1087139;54;19954;-79
2023/01/16 00:44:48;;;;;;;;;;;;;;;4.70;61.14;98639.88;1087179;54;19954;-79
2023/01/16 00:45:52;;;;;;;;;;;;;;;4.71;61.33;98646.88;1087525;54;20477;-79
2023/01/16 00:46:56;;;;;;;;;;;;;;;4.69;61.36;98633.75;1087641;54;19965;-79
2023/01/16 00:47:58;;;;;;;;;;;;;;;4.77;61.10;98641.00;1087564;54;19946;-79
2023/01/16 00:49:02;;;;;;;;;;;;;;;4.73;61.09;98634.28;1086914;54;19973;-79
2023/01/16 00:50:03;;;;;;;;;;;;;;;4.76;60.96;98639.31;1087602;47;19963;-78
2023/01/16 00:51:07;;;;;;;;;;;;;;;4.80;60.84;98630.13;1086526;54;20038;-78
2023/01/16 00:52:08;;;;;;;;;;;;;;;4.77;60.98;98633.03;1086601;54;19970;-78
2023/01/16 00:53:12;;;;;;;;;;;;;;;4.80;60.66;98624.81;1086539;54;20018;-77
2023/01/16 00:54:13;;;;;;;;;;;;;;;4.84;60.98;98620.06;1086407;54;19950;-77
2023/01/16 00:55:17;;;;;;;;;;;;;;;4.79;60.73;98611.72;1086465;54;19943;-77
2023/01/16 00:56:18;;;;;;;;;;;;;;;4.75;60.93;98620.94;1086610;54;20204;-77
2023/01/16 00:57:22;;;;;;;;;;;;;;;4.75;61.08;98624.41;1086891;54;20503;-78
2023/01/16 00:58:23;;;;;;;;;;;;;;;4.82;60.97;98614.09;1087027;54;19947;-78
2023/01/16 00:59:26;;;;;;;;;;;;;;;4.87;60.66;98614.47;1087340;54;19927;-78
2023/01/16 01:00:27;;;;;;;;;;;;;;;4.88;60.64;98612.69;1086668;54;19970;-77
2023/01/16 01:01:34;;;;;;;;;;;;;;;4.80;60.69;98614.25;1085149;54;19947;-77
2023/01/16 01:02:35;;;;;;;;;;;;;;;4.86;60.69;98622.56;1085066;54;19954;-77
2023/01/16 01:03:38;;;;;;;;;;;;;;;4.85;60.81;98611.16;1084923;54;19946;-76
2023/01/16 01:04:40;;;;;;;;;;;;;;;4.87;60.54;98616.31;1085021;54;19981;-78
2023/01/16 01:05:43;;;;;;;;;;;;;;;4.84;60.53;98610.31;1084707;54;20019;-78
2023/01/16 01:06:44;;;;;;;;;;;;;;;4.86;60.38;98604.88;1085158;54;19969;-78
2023/01/16 01:07:48;;;;;;;;;;;;;;;4.88;60.57;98599.44;1086455;54;19939;-79
2023/01/16 01:08:49;;;;;;;;;;;;;;;4.91;60.33;98605.28;1086823;54;19958;-79
2023/01/16 01:09:53;;;;;;;;;;;;;;;4.93;60.35;98600.69;1087190;54;20006;-77
2023/01/16 01:10:54;;;;;;;;;;;;;;;4.95;60.30;98600.53;1087145;54;19972;-77
2023/01/16 01:11:58;;;;;;;;;;;;;;;4.98;60.40;98594.94;1086991;54;19942;-77
2023/01/16 01:12:59;;;;;;;;;;;;;;;4.95;60.34;98600.53;1087010;54;19954;-77
2023/01/16 01:14:03;;;;;;;;;;;;;;;4.93;60.44;98597.19;1086804;54;19939;-78
2023/01/16 01:15:05;;;;;;;;;;;;;;;4.96;60.27;98605.66;1087079;54;19950;-77
2023/01/16 01:16:10;;;;;;;;;;;;;;;4.88;60.54;98594.97;1087090;54;19939;-78
2023/01/16 01:17:13;;;;;;;;;;;;;;;4.90;60.19;98595.66;1087106;54;19954;-78
2023/01/16 01:18:17;;;;;;;;;;;;;;;4.86;60.46;98590.78;1087808;39;20438;-78
2023/01/16 01:19:18;;;;;;;;;;;;;;;4.89;60.55;98588.69;1087124;54;19923;-78
2023/01/16 01:20:22;;;;;;;;;;;;;;;4.86;60.36;98583.69;1086822;54;19999;-77
2023/01/16 01:21:23;;;;;;;;;;;;;;;4.82;60.70;98583.13;1086962;54;19974;-78
2023/01/16 01:22:27;;;;;;;;;;;;;;;4.86;60.65;98577.56;1087227;54;19943;-77
2023/01/16 01:23:28;;;;;;;;;;;;;;;4.86;60.50;98575.75;1087455;54;19973;-78
2023/01/16 01:24:32;;;;;;;;;;;;;;;4.88;60.48;98572.97;1087053;54;19946;-78
2023/01/16 01:25:33;;;;;;;;;;;;;;;4.88;60.32;98568.47;1084919;54;19954;-77
2023/01/16 01:26:37;;;;;;;;;;;;;;;4.89;60.45;98571.97;1085089;54;19968;-83
2023/01/16 01:27:38;;;;;;;;;;;;;;;4.88;60.49;98567.66;1085189;54;19947;-78
2023/01/16 01:28:42;;;;;;;;;;;;;;;4.89;60.32;98566.69;1085407;54;20440;-79
2023/01/16 01:29:43;;;;;;;;;;;;;;;4.74;60.69;98567.13;1085314;54;19939;-78
2023/01/16 01:30:46;;;;;;;;;;;;;;;4.83;60.49;98571.56;1085173;54;19973;-78
2023/01/16 01:31:47;;;;;;;;;;;;;;;4.76;60.57;98570.47;1085060;54;19946;-78
2023/01/16 01:32:54;;;;;;;;;;;;;;;4.84;60.65;98567.94;1085225;54;19991;-78
2023/01/16 01:33:55;;;;;;;;;;;;;;;4.79;60.72;98559.59;1085462;39;20376;-78
2023/01/16 01:34:59;;;;;;;;;;;;;;;4.66;60.81;98559.06;1084749;54;19985;-78
2023/01/16 01:36:00;;;;;;;;;;;;;;;4.76;60.75;98559.88;1084914;54;19946;-77
2023/01/16 01:37:04;;;;;;;;;;;;;;;4.84;60.49;98557.34;1084891;54;19939;-79
2023/01/16 01:38:05;;;;;;;;;;;;;;;4.83;60.50;98550.38;1085034;54;19953;-77
2023/01/16 01:39:09;;;;;;;;;;;;;;;4.76;60.26;98554.59;1085036;54;19947;-78
2023/01/16 01:40:10;;;;;;;;;;;;;;;4.82;60.62;98546.06;1085368;54;19966;-78
2023/01/16 01:41:15;;;;;;;;;;;;;;;4.80;60.69;98550.69;1085237;54;19950;-78
2023/01/16 01:43:42;;;;;;;;;;;;;;;4.75;60.57;98547.63;1085681;54;19954;-78
2023/01/16 01:44:51;;;;;;;;;;;;;;;4.80;60.56;98537.44;1085540;54;19989;-78
2023/01/16 01:45:56;;;;;;;;;;;;;;;4.78;60.47;98539.41;1085613;54;19954;-79
2023/01/16 01:46:57;;;;;;;;;;;;;;;4.80;60.20;98534.81;1085720;54;20032;-78
2023/01/16 01:48:07;;;;;;;;;;;;;;;4.73;60.31;98536.34;1085593;54;19946;-78
2023/01/16 01:49:12;;;;;;;;;;;;;;;4.76;60.67;98537.88;1085362;47;20488;-78
2023/01/16 01:50:18;;;;;;;;;;;;;;;4.75;60.48;98536.22;1085695;54;19945;-79
2023/01/16 01:51:20;;;;;;;;;;;;;;;4.80;60.32;98526.00;1085690;54;19946;-78
2023/01/16 01:52:25;;;;;;;;;;;;;;;4.76;60.20;98520.16;1085348;54;19939;-78
2023/01/16 01:53:28;;;;;;;;;;;;;;;4.78;60.32;98520.00;1085385;54;19947;-78
2023/01/16 01:54:34;;;;;;;;;;;;;;;4.78;60.39;98510.28;1085591;54;19993;-78
2023/01/16 01:55:35;;;;;;;;;;;;;;;4.79;60.27;98506.66;1085221;54;20481;-77
2023/01/16 01:56:42;;;;;;;;;;;;;;;4.78;60.16;98504.13;1085824;39;20439;-77
2023/01/16 01:57:45;;;;;;;;;;;;;;;4.68;60.50;98502.34;1084506;54;19961;-77
2023/01/16 01:58:52;;;;;;;;;;;;;;;4.76;60.49;98504.28;1084632;54;20075;-77
2023/01/16 01:59:55;;;;;;;;;;;;;;;4.76;60.57;98504.28;1084854;54;19973;-78
2023/01/16 02:01:00;;;;;;;;;;;;;;;4.69;60.48;98500.56;1086514;31;20488;-77
2023/01/16 02:02:03;;;;;;;;;;;;;;;4.72;60.50;98499.44;1085033;39;20372;-77
2023/01/16 02:03:11;;;;;;;;;;;;;;;4.75;60.29;98501.78;1084694;54;20041;-76
2023/01/16 02:04:15;;;;;;;;;;;;;;;4.75;60.33;98492.03;1084568;54;19970;-77
2023/01/16 02:05:22;;;;;;;;;;;;;;;4.69;60.38;98490.78;1084725;54;19947;-77
2023/01/16 02:06:26;;;;;;;;;;;;;;;4.77;60.12;98484.78;1084794;54;19958;-77
2023/01/16 02:07:30;;;;;;;;;;;;;;;4.76;59.87;98488.41;1085177;54;19947;-78
2023/01/16 02:08:32;;;;;;;;;;;;;;;4.76;60.21;98485.75;1084984;54;19958;-77
2023/01/16 02:09:36;;;;;;;;;;;;;;;4.78;60.01;98478.50;1085273;54;19970;-78
2023/01/16 02:10:39;;;;;;;;;;;;;;;4.77;60.21;98476.84;1085362;54;19946;-78
2023/01/16 02:11:45;;;;;;;;;;;;;;;4.67;60.03;98473.38;1087000;54;19946;-78
2023/01/16 02:12:47;;;;;;;;;;;;;;;4.70;60.20;98459.88;1088063;54;19946;-78
2023/01/16 02:13:51;;;;;;;;;;;;;;;4.71;60.45;98476.56;1088222;54;19938;-78
2023/01/16 02:14:52;;;;;;;;;;;;;;;4.71;59.91;98456.25;1089933;46;19954;-78
2023/01/16 02:19:53;;;;;;;;;;;;;;;4.76;60.07;98448.69;1084642;54;19953;-77
2023/01/16 02:21:01;;;;;;;;;;;;;;;4.77;59.92;98449.53;1084304;54;19946;-77
2023/01/16 02:22:21;;;;;;;;;;;;;;;4.70;60.18;98444.00;1084261;54;19971;-77
2023/01/16 02:23:40;;;;;;;;;;;;;;;4.73;60.26;98434.91;1085003;54;20019;-76
2023/01/16 02:24:59;;;;;;;;;;;;;;;4.72;60.27;98435.88;1085403;54;20425;-77
2023/01/16 02:26:20;;;;;;;;;;;;;;;4.68;60.00;98430.88;1085651;54;19978;-78
2023/01/16 02:27:33;;;;;;;;;;;;;;;4.71;60.09;98427.13;1087382;31;20425;-77
2023/01/16 02:28:51;;;;;;;;;;;;;;;4.66;60.10;98419.63;1083928;54;19981;-77
2023/01/16 02:30:06;;;;;;;;;;;;;;;4.47;60.29;98423.16;1083929;54;19942;-78
2023/01/16 02:31:21;;;;;;;;;;;;;;;4.55;60.19;98416.31;1083992;54;19998;-77
2023/01/16 02:32:32;;;;;;;;;;;;;;;4.62;60.16;98409.47;1083943;54;20553;-77
2023/01/16 02:33:40;;;;;;;;;;;;;;;4.60;60.13;98411.44;1084116;46;19970;-77
2023/01/16 02:34:50;;;;;;;;;;;;;;;4.61;60.24;98403.34;1083762;54;19946;-76
2023/01/16 02:35:57;;;;;;;;;;;;;;;4.62;60.19;98401.53;1083901;54;19947;-79
2023/01/16 02:37:07;;;;;;;;;;;;;;;4.49;60.42;98404.50;1084304;54;20018;-77
2023/01/16 02:38:10;;;;;;;;;;;;;;;4.53;60.10;98404.06;1084437;39;20312;-78
2023/01/16 02:39:21;;;;;;;;;;;;;;;4.48;60.10;98398.38;1084288;54;19954;-77
2023/01/16 02:40:27;;;;;;;;;;;;;;;4.50;60.40;98392.94;1083911;54;20454;-77
2023/01/16 02:41:41;;;;;;;;;;;;;;;4.51;60.16;98392.81;1084214;54;19954;-77
2023/01/16 02:42:44;;;;;;;;;;;;;;;4.48;60.21;98394.91;1083445;54;19947;-78
2023/01/16 02:43:55;;;;;;;;;;;;;;;4.53;60.14;98387.34;1084062;54;19958;-77
2023/01/16 02:44:59;;;;;;;;;;;;;;;4.51;60.16;98376.94;1083907;54;19977;-78
2023/01/16 02:46:08;;;;;;;;;;;;;;;4.47;60.43;98380.84;1083904;54;19969;-77
2023/01/16 02:47:16;;;;;;;;;;;;;;;4.50;60.16;98369.97;1083799;54;19958;-77
2023/01/16 02:48:26;;;;;;;;;;;;;;;4.46;60.33;98368.56;1083812;54;19973;-76
2023/01/16 02:49:30;;;;;;;;;;;;;;;4.47;60.29;98364.13;1083919;54;19965;-77
2023/01/16 02:50:39;;;;;;;;;;;;;;;4.48;60.46;98361.34;1083853;54;19946;-77
2023/01/16 02:51:44;;;;;;;;;;;;;;;4.34;60.80;98360.00;1083528;54;19977;-77
2023/01/16 02:52:52;;;;;;;;;;;;;;;4.49;60.37;98360.34;1084414;54;19946;-78
2023/01/16 02:53:55;;;;;;;;;;;;;;;4.46;60.30;98358.00;1084490;54;19962;-77
2023/01/16 02:55:03;;;;;;;;;;;;;;;4.47;60.54;98357.00;1084534;47;19946;-77
2023/01/16 02:56:08;;;;;;;;;;;;;;;4.50;60.21;98354.09;1084288;54;19947;-77
2023/01/16 02:57:14;;;;;;;;;;;;;;;4.41;60.52;98352.31;1084296;54;19947;-77
2023/01/16 02:58:17;;;;;;;;;;;;;;;4.46;60.32;98347.41;1084301;54;19951;-76
2023/01/16 02:59:21;;;;;;;;;;;;;;;4.44;60.59;98333.47;1084777;54;19947;-78
2023/01/16 03:00:22;;;;;;;;;;;;;;;4.48;60.25;98348.09;1084935;54;20039;-78
2023/01/16 03:01:25;;;;;;;;;;;;;;;4.46;60.46;98334.19;1085227;39;20375;-77
2023/01/16 03:02:29;;;;;;;;;;;;;;;4.45;60.06;98329.03;1084500;54;19947;-77
2023/01/16 03:03:39;;;;;;;;;;;;;;;4.53;60.29;98329.13;1084154;54;19957;-77
2023/01/16 03:04:42;;;;;;;;;;;;;;;4.53;60.10;98322.00;1084582;54;19958;-78
2023/01/16 03:05:50;;;;;;;;;;;;;;;4.44;60.31;98330.84;1084826;39;20340;-77
2023/01/16 03:06:54;;;;;;;;;;;;;;;4.47;60.23;98322.63;1084594;54;19997;-76
2023/01/16 03:08:19;;;;;;;;;;;;;;;4.47;60.35;98325.25;1084359;54;20441;-77
2023/01/16 03:09:29;;;;;;;;;;;;;;;4.55;60.12;98326.31;1085139;54;20169;-78
2023/01/16 03:10:43;;;;;;;;;;;;;;;4.50;59.88;98316.19;1084858;54;20038;-78
2023/01/16 03:11:54;;;;;;;;;;;;;;;4.46;60.15;98323.59;1084763;54;19959;-78
2023/01/16 03:13:00;;;;;;;;;;;;;;;4.48;60.19;98311.06;1084671;54;19981;-77
2023/01/16 03:14:18;;;;;;;;;;;;;;;4.47;60.26;98312.03;1084646;54;19958;-78
2023/01/16 03:15:22;;;;;;;;;;;;;;;4.47;59.99;98308.56;1084404;54;19947;-77
2023/01/16 03:16:30;;;;;;;;;;;;;;;4.44;60.37;98301.72;1084335;54;19962;-77
2023/01/16 03:17:39;;;;;;;;;;;;;;;4.52;59.95;98303.66;1084548;54;19973;-78
2023/01/16 03:18:49;;;;;;;;;;;;;;;4.49;60.08;98296.00;1084653;54;19939;-77
2023/01/16 03:19:56;;;;;;;;;;;;;;;4.51;60.07;98301.97;1084038;54;20030;-77
2023/01/16 03:21:03;;;;;;;;;;;;;;;4.53;60.14;98290.25;1084621;54;19975;-77
2023/01/16 03:22:08;;;;;;;;;;;;;;;4.48;60.05;98289.88;1084478;54;19950;-77
2023/01/16 03:23:14;;;;;;;;;;;;;;;4.40;60.33;98276.56;1084527;54;19947;-78
2023/01/16 03:24:22;;;;;;;;;;;;;;;4.50;60.18;98269.41;1084615;54;19946;-78
2023/01/16 03:25:30;;;;;;;;;;;;;;;4.53;59.92;98266.44;1084564;54;19955;-78
2023/01/16 03:26:34;;;;;;;;;;;;;;;4.52;60.08;98266.59;1084579;39;20269;-77
2023/01/16 03:27:44;;;;;;;;;;;;;;;4.63;59.79;98257.63;1084504;54;19947;-78
2023/01/16 03:28:48;;;;;;;;;;;;;;;4.58;60.17;98250.09;1084505;54;19953;-78
2023/01/16 03:29:54;;;;;;;;;;;;;;;4.58;60.00;98255.41;1084492;54;19958;-79
2023/01/16 03:31:06;;;;;;;;;;;;;;;4.60;59.94;98253.44;1084489;54;19946;-78
2023/01/16 03:32:12;;;;;;;;;;;;;;;4.53;60.10;98242.63;1084631;54;19974;-77
2023/01/16 03:33:19;;;;;;;;;;;;;;;4.56;60.08;98252.09;1084387;54;20448;-78
2023/01/16 03:34:28;;;;;;;;;;;;;;;4.56;60.04;98253.88;1084308;54;19946;-77
2023/01/16 03:35:31;;;;;;;;;;;;;;;4.57;60.10;98237.88;1084385;54;19950;-77
2023/01/16 03:36:36;;;;;;;;;;;;;;;4.56;59.94;98230.06;1084307;54;19947;-75
2023/01/16 03:37:41;;;;;;;;;;;;;;;4.57;59.86;98231.75;1084358;54;19950;-77
2023/01/16 03:38:46;;;;;;;;;;;;;;;4.61;59.81;98230.47;1084939;54;19951;-77
2023/01/16 03:39:50;;;;;;;;;;;;;;;4.64;59.95;98227.50;1085354;46;20469;-77
2023/01/16 03:40:55;;;;;;;;;;;;;;;4.57;60.01;98231.75;1085656;54;20805;-78
2023/01/16 03:42:00;;;;;;;;;;;;;;;4.56;59.90;98232.72;1084795;54;19953;-78
2023/01/16 03:43:06;;;;;;;;;;;;;;;4.59;59.90;98229.78;1084838;54;19966;-77
2023/01/16 03:44:09;;;;;;;;;;;;;;;4.59;59.95;98224.50;1085290;54;19938;-78
2023/01/16 03:45:16;;;;;;;;;;;;;;;4.60;59.66;98226.16;1085568;54;20579;-79
2023/01/16 03:46:20;;;;;;;;;;;;;;;4.58;59.98;98222.81;1085877;46;20696;-80
2023/01/16 03:47:27;;;;;;;;;;;;;;;4.60;59.82;98216.38;1085710;39;20494;-78
2023/01/16 03:48:36;;;;;;;;;;;;;;;4.62;59.71;98209.13;1085250;54;19947;-78
2023/01/16 03:49:41;;;;;;;;;;;;;;;4.64;59.73;98207.16;1084702;54;19970;-77
2023/01/16 03:50:46;;;;;;;;;;;;;;;4.67;60.01;98208.69;1084570;39;20368;-77
2023/01/16 03:51:53;;;;;;;;;;;;;;;4.71;59.85;98206.56;1084379;54;19969;-77
2023/01/16 03:52:56;;;;;;;;;;;;;;;4.73;59.66;98205.41;1084275;54;20466;-78
2023/01/16 03:54:03;;;;;;;;;;;;;;;4.65;59.67;98200.03;1084466;54;19939;-77
2023/01/16 03:55:07;;;;;;;;;;;;;;;4.72;59.90;98198.47;1084674;54;19950;-77
2023/01/16 03:56:16;;;;;;;;;;;;;;;4.73;59.63;98194.00;1084797;54;19970;-77
2023/01/16 03:57:19;;;;;;;;;;;;;;;4.75;59.74;98195.50;1085100;54;19958;-77
2023/01/16 03:58:26;;;;;;;;;;;;;;;4.73;59.77;98200.13;1085050;54;20002;-78
2023/01/16 03:59:28;;;;;;;;;;;;;;;4.75;59.56;98189.38;1085065;54;19950;-77
2023/01/16 04:00:36;;;;;;;;;;;;;;;4.70;59.96;98179.25;1085426;54;20429;-77
2023/01/16 04:01:41;;;;;;;;;;;;;;;4.65;59.79;98186.81;1085438;46;19970;-78
2023/01/16 04:02:46;;;;;;;;;;;;;;;4.69;59.74;98194.28;1085318;46;19994;-77
2023/01/16 04:03:54;;;;;;;;;;;;;;;4.68;60.00;98176.75;1085006;54;19946;-77
2023/01/16 04:05:01;;;;;;;;;;;;;;;4.75;59.80;98176.16;1085414;39;20472;-78
2023/01/16 04:06:05;;;;;;;;;;;;;;;4.76;59.69;98177.81;1085048;54;19970;-77
2023/01/16 04:07:12;;;;;;;;;;;;;;;4.78;59.72;98168.72;1086599;39;20348;-78
2023/01/16 04:08:15;;;;;;;;;;;;;;;4.72;59.87;98166.72;1086156;54;20476;-79
2023/01/16 04:09:21;;;;;;;;;;;;;;;4.78;59.68;98168.72;1086010;54;19946;-79
2023/01/16 04:10:24;;;;;;;;;;;;;;;4.86;59.56;98167.13;1086415;54;19958;-78
2023/01/16 04:11:28;;;;;;;;;;;;;;;4.86;59.70;98160.03;1085091;54;19974;-78
2023/01/16 04:12:32;;;;;;;;;;;;;;;4.87;59.53;98152.91;1084989;54;19953;-77
2023/01/16 04:13:38;;;;;;;;;;;;;;;4.74;59.82;98158.59;1085604;47;19957;-77
2023/01/16 04:14:40;;;;;;;;;;;;;;;4.82;59.43;98142.78;1085780;54;19951;-77
2023/01/16 04:15:47;;;;;;;;;;;;;;;4.75;59.71;98141.75;1085341;54;19950;-78
2023/01/16 04:16:48;;;;;;;;;;;;;;;4.80;59.42;98139.44;1086958;54;19946;-78
2023/01/16 04:17:52;;;;;;;;;;;;;;;4.78;59.65;98139.63;1087272;54;19958;-78
2023/01/16 04:18:57;;;;;;;;;;;;;;;4.84;59.27;98132.88;1087455;54;19939;-80
2023/01/16 04:20:00;;;;;;;;;;;;;;;4.88;59.49;98123.63;1087080;54;19951;-78
2023/01/16 04:21:03;;;;;;;;;;;;;;;4.89;59.18;98124.47;1086278;54;19946;-78
2023/01/16 04:22:08;;;;;;;;;;;;;;;4.93;59.13;98123.16;1085625;54;19958;-77
2023/01/16 04:23:09;;;;;;;;;;;;;;;4.90;59.50;98126.13;1085968;54;19950;-77
2023/01/16 04:24:13;;;;;;;;;;;;;;;4.97;58.96;98119.22;1085496;54;19954;-78
2023/01/16 04:25:14;;;;;;;;;;;;;;;4.92;58.77;98113.53;1085363;54;20410;-79
2023/01/16 04:26:18;;;;;;;;;;;;;;;4.95;59.27;98118.53;1085288;54;19943;-78
2023/01/16 04:27:20;;;;;;;;;;;;;;;4.96;59.08;98115.72;1085305;54;19962;-77
2023/01/16 04:28:23;;;;;;;;;;;;;;;5.00;59.15;98106.47;1085100;54;19950;-78
2023/01/16 04:29:25;;;;;;;;;;;;;;;4.92;58.84;98113.53;1085176;54;19946;-78
2023/01/16 04:30:29;;;;;;;;;;;;;;;4.93;59.03;98099.31;1084913;54;19947;-77
2023/01/16 04:31:30;;;;;;;;;;;;;;;4.85;59.12;98102.75;1084684;54;19951;-77
2023/01/16 04:32:34;;;;;;;;;;;;;;;4.88;59.14;98096.31;1084874;54;19985;-78
2023/01/16 04:33:36;;;;;;;;;;;;;;;4.86;59.27;98098.28;1084780;54;19974;-78
2023/01/16 04:34:42;;;;;;;;;;;;;;;4.87;59.00;98089.34;1084931;54;20421;-77
2023/01/16 04:35:43;;;;;;;;;;;;;;;4.87;58.97;98095.47;1084959;54;19953;-78
2023/01/16 04:36:47;;;;;;;;;;;;;;;4.94;58.74;98090.38;1084950;54;20037;-78
2023/01/16 04:37:48;;;;;;;;;;;;;;;4.93;58.72;98088.72;1084920;54;19946;-78
2023/01/16 04:38:52;;;;;;;;;;;;;;;4.86;59.06;98077.09;1085177;54;19946;-78
2023/01/16 04:39:53;;;;;;;;;;;;;;;4.90;59.10;98071.34;1084973;54;19965;-78
2023/01/16 04:40:57;;;;;;;;;;;;;;;4.93;59.00;98070.19;1085549;54;19969;-78
2023/01/16 04:41:58;;;;;;;;;;;;;;;4.91;59.06;98061.59;1085561;54;19974;-78
2023/01/16 04:43:02;;;;;;;;;;;;;;;4.78;59.32;98065.47;1087547;31;20457;-77
2023/01/16 04:44:03;;;;;;;;;;;;;;;4.84;59.59;98058.72;1085017;54;19946;-78
2023/01/16 04:45:07;;;;;;;;;;;;;;;4.93;59.32;98049.84;1084516;54;19954;-77
2023/01/16 04:46:08;;;;;;;;;;;;;;;4.96;59.24;98043.41;1084905;54;19970;-77
2023/01/16 04:47:12;;;;;;;;;;;;;;;4.89;59.08;98045.03;1085380;47;20460;-78
2023/01/16 04:48:13;;;;;;;;;;;;;;;4.89;59.29;98047.66;1085454;54;19947;-78
2023/01/16 04:49:19;;;;;;;;;;;;;;;4.82;59.19;98042.97;1085161;54;19954;-78
2023/01/16 04:50:23;;;;;;;;;;;;;;;4.84;59.54;98041.03;1085237;54;19947;-77
2023/01/16 04:51:28;;;;;;;;;;;;;;;4.83;59.58;98036.72;1085309;54;19946;-77
2023/01/16 04:52:29;;;;;;;;;;;;;;;4.82;59.38;98040.34;1085495;54;19962;-78
2023/01/16 04:53:33;;;;;;;;;;;;;;;4.72;59.64;98037.00;1084845;54;20448;-77
2023/01/16 04:54:34;;;;;;;;;;;;;;;4.69;59.82;98030.19;1085020;54;19958;-77
2023/01/16 04:55:38;;;;;;;;;;;;;;;4.81;59.61;98033.41;1084780;54;19947;-79
2023/01/16 04:56:39;;;;;;;;;;;;;;;4.86;59.53;98026.78;1085344;54;20471;-77
2023/01/16 04:57:43;;;;;;;;;;;;;;;4.79;59.49;98014.19;1085517;54;19953;-77
2023/01/16 04:58:44;;;;;;;;;;;;;;;4.77;59.64;98005.56;1085234;54;19970;-77
2023/01/16 04:59:48;;;;;;;;;;;;;;;4.74;59.61;98007.72;1085063;54;19946;-78
2023/01/16 05:00:49;;;;;;;;;;;;;;;4.64;59.95;98006.00;1084967;54;20472;-78
2023/01/16 05:01:52;;;;;;;;;;;;;;;4.61;60.02;98006.31;1085130;54;20424;-79
2023/01/16 05:02:53;;;;;;;;;;;;;;;4.61;60.23;98000.19;1084895;54;19962;-77
2023/01/16 05:03:57;;;;;;;;;;;;;;;4.62;59.80;97992.09;1085277;54;20017;-78
2023/01/16 05:04:58;;;;;;;;;;;;;;;4.64;59.92;97999.88;1084723;54;19946;-77
2023/01/16 05:06:05;;;;;;;;;;;;;;;4.62;59.98;97986.81;1085126;47;20429;-78
2023/01/16 05:07:06;;;;;;;;;;;;;;;4.60;59.70;97987.94;1085166;54;19969;-78
2023/01/16 05:08:19;;;;;;;;;;;;;;;4.62;59.66;97992.09;1085577;39;20740;-77
2023/01/16 05:09:20;;;;;;;;;;;;;;;4.65;59.78;97980.34;1084736;54;19947;-77
2023/01/16 05:10:24;;;;;;;;;;;;;;;4.60;59.61;97986.13;1084338;54;19961;-77
2023/01/16 05:11:25;;;;;;;;;;;;;;;4.67;59.61;97991.63;1084188;54;19973;-77
2023/01/16 05:12:29;;;;;;;;;;;;;;;4.66;59.63;97984.66;1084482;54;19982;-77
2023/01/16 05:13:30;;;;;;;;;;;;;;;4.67;59.79;97983.69;1084459;54;19946;-78
2023/01/16 05:14:34;;;;;;;;;;;;;;;4.67;59.59;97978.38;1084620;54;19969;-76
2023/01/16 05:15:35;;;;;;;;;;;;;;;4.69;59.50;97969.28;1084974;54;19950;-79
2023/01/16 05:16:41;;;;;;;;;;;;;;;4.74;59.64;97968.81;1085653;54;19962;-77
2023/01/16 05:17:42;;;;;;;;;;;;;;;4.68;59.16;97970.28;1085018;54;19974;-77
2023/01/16 05:18:46;;;;;;;;;;;;;;;4.69;59.19;97971.13;1085079;54;19947;-77
2023/01/16 05:19:47;;;;;;;;;;;;;;;4.64;59.09;97968.97;1085441;54;19962;-77
2023/01/16 05:20:51;;;;;;;;;;;;;;;4.66;59.43;97960.84;1085024;54;19939;-78
2023/01/16 05:21:55;;;;;;;;;;;;;;;4.63;59.12;97955.88;1085519;54;19946;-77
2023/01/16 05:22:58;;;;;;;;;;;;;;;4.60;59.33;97956.19;1086796;39;20345;-78
2023/01/16 05:23:59;;;;;;;;;;;;;;;4.66;59.30;97966.13;1085574;54;19950;-78
2023/01/16 05:25:03;;;;;;;;;;;;;;;4.63;59.33;97961.19;1085391;54;19973;-78
2023/01/16 05:26:05;;;;;;;;;;;;;;;4.60;59.08;97951.72;1085345;54;20485;-77
2023/01/16 05:27:09;;;;;;;;;;;;;;;4.63;59.04;97954.06;1085249;54;19954;-78
2023/01/16 05:28:11;;;;;;;;;;;;;;;4.53;58.88;97946.22;1086960;46;19966;-77
2023/01/16 05:29:14;;;;;;;;;;;;;;;4.52;59.14;97939.28;1084737;54;20550;-78
2023/01/16 05:30:16;;;;;;;;;;;;;;;4.46;59.15;97939.91;1084826;54;20483;-77
2023/01/16 05:31:20;;;;;;;;;;;;;;;4.52;59.29;97949.88;1084936;54;19955;-77
2023/01/16 05:32:21;;;;;;;;;;;;;;;4.50;59.28;97941.25;1085133;54;19939;-77
2023/01/16 05:33:25;;;;;;;;;;;;;;;4.58;59.23;97942.28;1085020;54;19962;-78
2023/01/16 05:34:28;;;;;;;;;;;;;;;4.61;58.86;97931.38;1084798;54;19951;-77
2023/01/16 05:35:30;;;;;;;;;;;;;;;4.48;59.26;97932.66;1084902;54;19974;-77
2023/01/16 05:36:33;;;;;;;;;;;;;;;4.47;59.07;97925.69;1085170;54;20417;-78
2023/01/16 05:37:37;;;;;;;;;;;;;;;4.51;59.04;97924.41;1085066;54;19946;-78
2023/01/16 05:38:41;;;;;;;;;;;;;;;4.47;58.96;97933.63;1085453;54;19946;-77
2023/01/16 05:39:42;;;;;;;;;;;;;;;4.47;59.05;97925.69;1085058;54;19946;-77
2023/01/16 05:40:46;;;;;;;;;;;;;;;4.47;59.09;97923.03;1084963;54;20794;-78
2023/01/16 05:41:47;;;;;;;;;;;;;;;4.52;58.97;97920.78;1086160;39;20412;-78
2023/01/16 05:42:50;;;;;;;;;;;;;;;4.57;59.00;97914.16;1084692;54;19947;-78
2023/01/16 05:43:52;;;;;;;;;;;;;;;4.56;58.92;97913.34;1084620;54;19962;-77
2023/01/16 05:44:55;;;;;;;;;;;;;;;4.59;58.62;97909.53;1085001;54;20429;-77
2023/01/16 05:45:56;;;;;;;;;;;;;;;4.59;58.98;97907.72;1085757;54;19946;-78